Time;durP1;ratioP1;P1;durP2;ratioP2;P2;SDS_P1;SDS_P2;PMS_P1;PMS_P2;Temp;Humidity;BMP_temperature;BMP_pressure;BME280_temperature;BME280_humidity;BME280_pressure;Samples;Min_cycle;Max_cycle;Signal;HPM_P1;HPM_P2
2022/03/20 00:02:30;;;;;;;8.40;4.93;;;;;;;10.74;38.08;103223.94;5035853;28;20045;-66
2022/03/20 00:05:00;;;;;;;7.72;5.03;;;;;;;10.71;37.96;103224.03;5035549;28;20042;-66
2022/03/20 00:07:27;;;;;;;7.25;4.85;;;;;;;10.67;38.12;103218.81;5035084;28;20500;-65
2022/03/20 00:09:54;;;;;;;9.88;5.32;;;;;;;10.62;38.30;103213.59;5035320;28;20052;-67
2022/03/20 00:12:23;;;;;;;10.30;5.53;;;;;;;10.59;38.30;103208.34;5035548;28;20048;-66
2022/03/20 00:14:50;;;;;;;7.45;5.50;;;;;;;10.56;38.42;103205.75;5017358;28;20137;-65
2022/03/20 00:17:16;;;;;;;8.63;5.32;;;;;;;10.54;38.47;103212.97;5035196;28;20415;-66
2022/03/20 00:19:44;;;;;;;8.27;4.97;;;;;;;10.50;38.47;103205.97;5035416;28;20549;-65
2022/03/20 00:22:11;;;;;;;8.90;5.20;;;;;;;10.43;38.52;103199.03;5034931;28;20484;-65
2022/03/20 00:24:40;;;;;;;8.85;5.43;;;;;;;10.36;38.69;103197.44;5034952;28;20474;-66
2022/03/20 00:27:10;;;;;;;8.40;4.97;;;;;;;10.32;38.69;103187.72;5035122;28;20519;-66
2022/03/20 00:29:38;;;;;;;11.23;5.10;;;;;;;10.26;38.81;103185.25;5019808;28;20519;-66
2022/03/20 00:32:06;;;;;;;7.63;4.97;;;;;;;10.21;38.81;103187.19;5020713;28;20051;-66
2022/03/20 00:34:33;;;;;;;10.95;6.10;;;;;;;10.16;38.79;103182.81;5035693;28;20080;-66
2022/03/20 00:37:00;;;;;;;7.57;5.22;;;;;;;10.11;38.94;103176.72;5035004;28;20034;-66
2022/03/20 00:39:27;;;;;;;9.85;5.63;;;;;;;10.09;39.07;103175.88;5035162;28;20037;-65
2022/03/20 00:41:53;;;;;;;10.05;5.60;;;;;;;10.07;39.19;103174.19;5035027;28;20042;-66
2022/03/20 00:44:20;;;;;;;12.52;6.10;;;;;;;10.04;39.34;103169.78;5034452;28;20045;-66
2022/03/20 00:46:48;;;;;;;9.82;5.90;;;;;;;10.02;39.40;103160.03;5034921;28;20048;-65
2022/03/20 00:49:16;;;;;;;9.98;6.78;;;;;;;9.99;39.56;103158.31;5034531;28;20389;-65
2022/03/20 00:51:43;;;;;;;9.10;6.70;;;;;;;9.98;39.45;103155.69;5034545;28;20052;-66
2022/03/20 00:54:11;;;;;;;10.23;6.75;;;;;;;9.94;39.56;103151.34;5034673;28;20038;-64
2022/03/20 00:56:38;;;;;;;13.05;7.80;;;;;;;9.91;39.63;103144.25;5034647;28;20076;-65
2022/03/20 00:59:05;;;;;;;15.15;8.13;;;;;;;9.86;39.71;103146.22;5034683;28;20054;-66
2022/03/20 01:01:32;;;;;;;12.65;8.25;;;;;;;9.82;39.69;103145.44;5034199;28;20492;-65
2022/03/20 01:03:59;;;;;;;14.80;8.70;;;;;;;9.78;39.84;103135.72;5033981;28;20029;-66
2022/03/20 01:06:26;;;;;;;13.02;8.57;;;;;;;9.75;39.86;103143.88;5034480;28;20041;-65
2022/03/20 01:08:52;;;;;;;14.82;9.30;;;;;;;9.73;39.90;103134.09;5034441;28;20060;-66
2022/03/20 01:11:20;;;;;;;12.95;9.50;;;;;;;9.68;39.98;103139.63;5034654;28;20038;-65
2022/03/20 01:13:47;;;;;;;15.50;10.32;;;;;;;9.66;39.87;103132.50;5034291;28;20041;-65
2022/03/20 01:16:13;;;;;;;15.23;11.27;;;;;;;9.63;40.10;103125.44;5034957;28;20048;-65
2022/03/20 01:18:40;;;;;;;15.82;11.73;;;;;;;9.61;40.16;103134.47;5034086;28;20048;-65
2022/03/20 01:21:07;;;;;;;18.45;11.55;;;;;;;9.57;40.29;103122.94;5034091;28;20107;-65
2022/03/20 01:23:34;;;;;;;16.65;11.82;;;;;;;9.56;40.14;103116.69;5034180;28;20037;-66
2022/03/20 01:26:00;;;;;;;18.02;12.25;;;;;;;9.56;40.15;103113.13;5034022;28;20084;-66
2022/03/20 01:28:27;;;;;;;18.90;13.13;;;;;;;9.52;40.24;103103.44;5033646;28;20391;-66
2022/03/20 01:30:55;;;;;;;20.20;12.82;;;;;;;9.50;40.21;103102.59;5034416;28;20116;-66
2022/03/20 01:33:22;;;;;;;17.65;12.48;;;;;;;9.49;40.33;103100.84;5017800;28;20049;-67
2022/03/20 01:35:48;;;;;;;16.30;12.70;;;;;;;9.47;40.25;103089.28;5033384;28;20065;-66
2022/03/20 01:38:19;;;;;;;18.35;12.43;;;;;;;9.45;40.29;103093.81;5015643;28;20060;-66
2022/03/20 01:40:50;;;;;;;18.80;12.25;;;;;;;9.43;40.49;103077.75;5016287;28;20392;-66
2022/03/20 01:43:19;;;;;;;19.40;12.77;;;;;;;9.40;40.28;103075.19;5016116;28;20407;-66
2022/03/20 01:45:46;;;;;;;18.38;13.57;;;;;;;9.37;40.50;103071.72;5015683;28;20088;-64
2022/03/20 01:48:12;;;;;;;19.17;13.13;;;;;;;9.33;40.61;103070.94;5033292;28;20034;-65
2022/03/20 01:50:39;;;;;;;18.73;13.95;;;;;;;9.34;40.48;103077.16;5033584;28;20131;-65
2022/03/20 01:53:06;;;;;;;18.58;12.93;;;;;;;9.33;40.53;103062.88;5016019;28;20377;-64
2022/03/20 01:55:33;;;;;;;22.42;14.88;;;;;;;9.32;40.55;103071.84;5033582;28;20084;-64
2022/03/20 01:58:00;;;;;;;18.02;13.35;;;;;;;9.30;40.60;103067.47;5016084;28;20100;-65
2022/03/20 02:00:27;;;;;;;20.65;14.23;;;;;;;9.28;40.57;103072.88;5032979;28;20049;-64
2022/03/20 02:02:55;;;;;;;19.35;13.75;;;;;;;9.24;40.63;103061.38;5015894;28;20570;-65
2022/03/20 02:05:22;;;;;;;21.08;14.27;;;;;;;9.23;40.68;103056.03;5033243;28;20096;-65
2022/03/20 02:07:48;;;;;;;20.80;14.35;;;;;;;9.22;40.70;103056.97;5033342;28;20041;-66
2022/03/20 02:10:16;;;;;;;19.52;14.50;;;;;;;9.22;40.91;103051.59;5015704;28;20415;-65
2022/03/20 02:12:43;;;;;;;20.10;14.40;;;;;;;9.21;40.83;103042.69;5033423;28;20045;-66
2022/03/20 02:15:13;;;;;;;20.27;14.82;;;;;;;9.19;40.83;103033.81;5015335;28;20499;-65
2022/03/20 02:17:41;;;;;;;19.85;14.00;;;;;;;9.17;40.84;103041.03;5033145;28;20052;-66
2022/03/20 02:20:09;;;;;;;22.90;14.52;;;;;;;9.13;40.80;103042.03;5032756;28;20041;-66
2022/03/20 02:22:44;;;;;;;18.50;14.93;;;;;;;9.08;40.80;103033.25;5033283;28;20132;-65
2022/03/20 02:25:14;;;;;;;18.70;13.87;;;;;;;9.04;41.08;103028.91;5032818;28;20443;-65
2022/03/20 02:27:44;;;;;;;23.13;15.40;;;;;;;9.03;40.92;103028.97;5033215;28;20674;-65
2022/03/20 02:30:14;;;;;;;22.20;15.95;;;;;;;9.00;41.06;103026.38;5033458;28;20053;-65
2022/03/20 02:32:45;;;;;;;26.45;15.90;;;;;;;8.98;41.18;103020.19;5033300;28;20453;-64
2022/03/20 02:35:15;;;;;;;24.48;16.20;;;;;;;8.98;41.06;103014.81;5032894;28;20049;-65
2022/03/20 02:37:53;;;;;;;26.02;16.25;;;;;;;8.95;41.25;103009.56;5033171;28;20117;-65
2022/03/20 02:40:21;;;;;;;24.58;16.30;;;;;;;8.94;41.22;103002.44;5032731;28;20562;-65
2022/03/20 02:42:51;;;;;;;25.20;17.02;;;;;;;8.91;41.18;103004.25;5033196;28;20037;-64
2022/03/20 02:45:20;;;;;;;23.70;17.20;;;;;;;8.90;41.47;103002.50;5032855;28;20041;-65
2022/03/20 02:47:48;;;;;;;25.52;16.38;;;;;;;8.88;41.16;102998.97;5035614;28;20047;-65
2022/03/20 02:50:24;;;;;;;26.25;17.67;;;;;;;8.87;41.24;102991.88;5036750;28;20045;-65
2022/03/20 02:52:58;;;;;;;;;;;;;;;8.84;41.24;102985.72;5037165;28;20099;-64
2022/03/20 02:55:27;;;;;;;24.63;17.33;;;;;;;8.84;41.07;102986.59;5036947;28;19975;-65
2022/03/20 02:57:57;;;;;;;25.92;18.15;;;;;;;8.82;41.26;102984.91;5036690;28;20049;-64
2022/03/20 03:00:28;;;;;;;25.00;17.35;;;;;;;8.79;41.34;102985.88;5037110;28;20052;-64
2022/03/20 03:02:57;;;;;;;26.33;18.08;;;;;;;8.78;41.72;102978.75;5036504;28;20041;-65
2022/03/20 03:05:26;;;;;;;29.73;18.80;;;;;;;8.73;41.33;102969.97;5018439;28;20037;-66
2022/03/20 03:10:56;;;;;;;26.33;18.77;;;;;;;8.66;41.52;102971.06;5036150;28;20115;-65
2022/03/20 03:13:37;;;;;;;28.08;19.38;;;;;;;8.64;41.64;102964.88;5018735;28;20496;-65
2022/03/20 03:16:13;;;;;;;26.50;18.67;;;;;;;8.65;41.56;102955.91;5018702;28;20104;-65
2022/03/20 03:18:45;;;;;;;25.75;19.30;;;;;;;8.65;41.43;102958.59;5036503;28;20128;-65
2022/03/20 03:21:14;;;;;;;24.25;18.65;;;;;;;8.62;41.58;102950.66;5036386;28;20041;-65
2022/03/20 03:23:41;;;;;;;27.92;18.10;;;;;;;8.60;41.58;102955.19;5035949;28;20038;-65
2022/03/20 03:26:09;;;;;;;27.20;18.27;;;;;;;8.58;41.57;102960.59;5036431;28;20052;-65
2022/03/20 03:28:36;;;;;;;30.42;18.70;;;;;;;8.55;41.67;102955.31;5036584;28;20048;-65
2022/03/20 03:31:08;;;;;;;25.13;18.23;;;;;;;8.52;41.63;102955.41;5036302;28;20411;-65
2022/03/20 03:35:41;;;;;;;25.73;18.60;;;;;;;8.48;41.78;102950.19;5033740;28;20054;-66
2022/03/20 03:36:26;;;;;;;28.80;18.45;;;;;;;8.45;41.65;102944.91;5016330;28;20046;-65
2022/03/20 03:38:53;;;;;;;26.35;19.25;;;;;;;8.41;41.73;102938.78;5016207;28;20064;-66
2022/03/20 03:41:20;;;;;;;24.60;17.85;;;;;;;8.38;41.79;102932.63;5002250;28;20167;-66
2022/03/20 03:43:47;;;;;;;27.60;19.90;;;;;;;8.36;42.05;102931.78;5035727;28;20037;-65
2022/03/20 03:46:14;;;;;;;28.30;18.65;;;;;;;8.33;42.03;102923.81;5035871;28;20069;-66
2022/03/20 03:48:40;;;;;;;29.65;18.67;;;;;;;8.29;41.95;102920.34;5017812;28;20069;-66
2022/03/20 03:51:07;;;;;;;27.98;19.45;;;;;;;8.25;42.00;102914.22;5035813;28;20044;-66
2022/03/20 03:53:34;;;;;;;27.13;19.38;;;;;;;8.22;42.05;102903.59;5035243;28;20033;-66
2022/03/20 03:56:00;;;;;;;28.83;19.45;;;;;;;8.20;42.07;102910.78;5035811;28;20046;-65
2022/03/20 03:58:27;;;;;;;28.63;19.42;;;;;;;8.17;42.17;102908.16;5035012;28;20037;-66
2022/03/20 04:00:53;;;;;;;28.15;18.60;;;;;;;8.15;42.29;102910.00;5035311;28;20403;-65
2022/03/20 04:03:20;;;;;;;27.13;19.10;;;;;;;8.13;42.43;102903.81;5035524;28;20038;-66
2022/03/20 04:05:47;;;;;;;26.25;19.25;;;;;;;8.10;42.33;102911.06;5035136;28;20065;-65
2022/03/20 04:08:15;;;;;;;26.08;18.67;;;;;;;8.09;42.49;102902.16;5000863;28;20081;-66
2022/03/20 04:10:42;;;;;;;31.17;18.73;;;;;;;8.09;42.53;102898.59;5035463;28;20037;-66
2022/03/20 04:13:09;;;;;;;28.02;19.48;;;;;;;8.08;42.50;102897.72;5035584;28;20041;-66
2022/03/20 04:15:36;;;;;;;24.45;17.90;;;;;;;8.08;42.50;102880.78;5035286;28;20034;-65
2022/03/20 04:18:03;;;;;;;27.10;20.02;;;;;;;8.06;42.46;102879.94;5035452;28;20103;-67
2022/03/20 04:20:30;;;;;;;27.00;19.58;;;;;;;8.05;42.69;102872.84;5035478;28;20184;-65
2022/03/20 04:25:41;;;;;;;28.27;19.45;;;;;;;8.03;42.60;102863.97;5034729;28;20041;-65
2022/03/20 04:28:09;;;;;;;30.42;18.88;;;;;;;8.00;42.73;102848.88;5017844;28;20041;-65
2022/03/20 04:30:36;;;;;;;25.92;18.73;;;;;;;7.99;42.66;102839.09;5035283;28;20045;-65
2022/03/20 04:33:06;;;;;;;26.67;18.45;;;;;;;7.99;42.78;102836.44;5001463;28;20073;-65
2022/03/20 04:35:33;;;;;;;27.67;18.92;;;;;;;8.00;42.70;102829.28;5034460;28;20047;-66
2022/03/20 04:38:04;;;;;;;29.27;18.88;;;;;;;8.00;42.81;102835.50;5035013;28;20554;-65
2022/03/20 04:40:31;;;;;;;23.98;18.83;;;;;;;8.02;42.48;102841.69;5034657;28;20061;-65
2022/03/20 04:42:57;;;;;;;28.63;18.35;;;;;;;8.04;42.93;102838.97;5017462;28;20033;-66
2022/03/20 04:45:26;;;;;;;28.17;17.55;;;;;;;8.04;42.69;102834.50;5034429;28;20116;-65
2022/03/20 04:58:57;;;;;;;24.23;17.23;;;;;;;8.03;42.68;102839.91;5034551;28;20076;-64
2022/03/20 05:01:24;;;;;;;23.92;17.85;;;;;;;8.02;42.69;102835.47;5034430;28;20048;-67
2022/03/20 05:03:51;;;;;;;26.65;18.55;;;;;;;8.06;42.73;102829.09;5034540;28;20052;-67
2022/03/20 05:06:17;;;;;;;24.13;17.60;;;;;;;8.07;42.81;102821.03;5034444;28;20124;-66
2022/03/20 05:08:44;;;;;;;27.35;18.45;;;;;;;8.13;42.70;102820.84;5033677;28;20049;-65
2022/03/20 05:13:56;;;;;;;25.67;17.40;;;;;;;8.23;42.76;102800.06;5034172;28;20414;-65
2022/03/20 05:16:22;;;;;;;27.13;17.95;;;;;;;8.28;42.71;102803.50;5034277;28;20046;-66
2022/03/20 05:18:49;;;;;;;24.58;17.15;;;;;;;8.31;42.58;102790.00;5034008;28;20072;-65
2022/03/20 05:21:16;;;;;;;25.30;16.58;;;;;;;8.35;42.43;102796.19;5034406;28;20127;-66
2022/03/20 05:23:42;;;;;;;22.73;16.73;;;;;;;8.39;42.30;102808.53;5034170;28;20084;-65
2022/03/20 05:26:09;;;;;;;24.13;16.50;;;;;;;8.40;42.28;102795.13;5034023;28;20046;-66
2022/03/20 05:28:36;;;;;;;26.25;17.13;;;;;;;8.44;42.20;102798.56;5034033;28;20053;-66
2022/03/20 05:31:03;;;;;;;26.40;16.70;;;;;;;8.46;42.08;102791.38;5033820;28;20132;-66
2022/03/20 05:33:31;;;;;;;23.83;16.58;;;;;;;8.47;41.90;102779.72;5016584;28;20484;-66
2022/03/20 05:35:58;;;;;;;23.17;16.15;;;;;;;8.48;41.86;102770.78;5033614;28;20048;-65
2022/03/20 05:38:25;;;;;;;24.58;16.90;;;;;;;8.49;41.73;102780.56;5016150;28;20042;-65
2022/03/20 05:41:43;;;;;;;24.63;17.33;;;;;;;8.48;41.66;102784.16;5016521;28;20041;-65
2022/03/20 05:43:38;;;;;;;23.60;17.00;;;;;;;8.49;41.66;102792.16;5025644;28;20041;-65
2022/03/20 05:46:04;;;;;;;23.63;15.93;;;;;;;8.49;41.42;102786.78;4980091;28;20097;-66
2022/03/20 05:48:31;;;;;;;23.92;16.15;;;;;;;8.50;41.40;102793.03;5033967;28;20072;-66
2022/03/20 05:50:58;;;;;;;22.17;15.18;;;;;;;8.48;41.09;102785.03;5033534;28;20049;-65
2022/03/20 05:53:24;;;;;;;25.17;16.27;;;;;;;8.49;41.11;102785.91;5033347;28;20045;-66
2022/03/20 05:58:36;;;;;;;22.05;15.35;;;;;;;8.49;40.89;102783.25;5019188;28;20049;-66
2022/03/20 06:01:03;;;;;;;22.73;16.48;;;;;;;8.49;40.97;102785.91;5033312;28;20048;-66
2022/03/20 06:03:30;;;;;;;23.45;16.15;;;;;;;8.48;40.91;102781.50;5033516;28;20124;-65
2022/03/20 06:05:58;;;;;;;23.85;16.80;;;;;;;8.47;40.76;102788.63;5032789;28;20045;-65
2022/03/20 06:08:24;;;;;;;24.73;16.48;;;;;;;8.48;40.82;102792.19;5015840;28;20052;-65
2022/03/20 06:10:51;;;;;;;22.55;16.50;;;;;;;8.46;40.78;102775.31;5033618;28;20042;-65
2022/03/20 06:13:18;;;;;;;20.67;15.85;;;;;;;8.47;40.70;102774.38;5016123;28;20033;-65
2022/03/20 06:15:46;;;;;;;24.17;16.13;;;;;;;8.47;40.72;102769.91;5033214;28;20128;-66
2022/03/20 06:18:13;;;;;;;25.35;16.52;;;;;;;8.46;40.84;102761.91;5033302;28;20395;-65
2022/03/20 06:20:44;;;;;;;24.83;15.55;;;;;;;8.46;40.70;102765.47;5033268;28;20038;-65
2022/03/20 06:23:10;;;;;;;26.10;16.20;;;;;;;8.46;40.67;102754.75;5033076;28;20049;-65
2022/03/20 06:25:38;;;;;;;21.02;15.05;;;;;;;8.48;40.66;102752.91;5032773;28;20041;-65
2022/03/20 06:28:05;;;;;;;22.00;15.45;;;;;;;8.48;40.58;102752.03;5033038;28;20476;-67
2022/03/20 06:30:35;;;;;;;23.20;15.55;;;;;;;8.49;40.66;102749.31;5033076;28;20385;-65
2022/03/20 06:33:04;;;;;;;22.45;16.10;;;;;;;8.51;40.50;102754.63;5033765;28;20045;-66
2022/03/20 06:35:31;;;;;;;25.80;16.35;;;;;;;8.52;40.76;102756.38;5033279;28;20073;-65
2022/03/20 06:37:58;;;;;;;21.35;15.60;;;;;;;8.52;40.55;102753.69;5033153;28;20120;-65
2022/03/20 06:40:24;;;;;;;21.15;15.85;;;;;;;8.52;40.76;102753.69;5033309;28;20140;-66
2022/03/20 06:42:52;;;;;;;25.60;16.17;;;;;;;8.54;40.43;102758.06;5032903;28;20042;-66
2022/03/20 06:45:20;;;;;;;21.65;15.45;;;;;;;8.55;40.35;102767.84;5013327;28;20038;-66
2022/03/20 06:47:48;;;;;;;21.25;15.35;;;;;;;8.57;40.24;102757.97;5013135;28;20080;-66
2022/03/20 06:50:14;;;;;;;28.20;15.60;;;;;;;8.59;40.11;102750.75;5022300;28;20508;-65
2022/03/20 06:52:41;;;;;;;21.10;14.82;;;;;;;8.63;40.14;102753.34;5033187;28;20037;-66
2022/03/20 06:55:18;;;;;;;22.75;14.45;;;;;;;8.65;39.87;102751.47;5032988;28;20128;-66
2022/03/20 06:57:46;;;;;;;22.70;15.18;;;;;;;8.67;39.84;102750.50;5033003;28;20554;-65
2022/03/20 07:00:14;;;;;;;23.75;15.73;;;;;;;8.70;39.72;102737.00;5032811;28;20041;-65
2022/03/20 07:02:53;;;;;;;20.50;15.07;;;;;;;8.73;39.72;102742.28;5015313;28;20049;-65
2022/03/20 07:05:21;;;;;;;20.95;14.55;;;;;;;8.76;39.52;102743.97;5032878;28;20050;-66
2022/03/20 07:07:50;;;;;;;23.38;15.40;;;;;;;8.78;39.53;102740.31;5032882;28;20033;-65
2022/03/20 07:10:24;;;;;;;20.65;14.18;;;;;;;8.83;39.51;102740.16;5032451;28;20061;-65
2022/03/20 07:13:48;;;;;;;20.40;14.43;;;;;;;8.86;39.37;102719.50;5032795;28;20055;-65
2022/03/20 07:15:45;;;;;;;22.20;15.00;;;;;;;8.88;39.10;102717.63;5014624;28;20048;-65
2022/03/20 07:18:15;;;;;;;22.45;14.43;;;;;;;8.89;38.99;102722.06;5032872;28;20037;-65
2022/03/20 07:20:44;;;;;;;22.63;15.18;;;;;;;8.93;38.90;102716.63;5032665;28;20046;-65
2022/03/20 07:23:11;;;;;;;21.10;14.27;;;;;;;8.94;38.86;102713.03;5033178;28;20045;-65
2022/03/20 07:31:14;;;;;;;24.40;13.95;;;;;;;9.10;38.74;102706.22;5032521;28;20038;-65
2022/03/20 07:33:41;;;;;;;21.95;15.02;;;;;;;9.16;38.62;102689.91;5017871;28;20076;-65
2022/03/20 07:36:07;;;;;;;22.38;15.27;;;;;;;9.23;38.42;102684.28;5028377;28;20045;-65
2022/03/20 07:38:35;;;;;;;22.98;14.93;;;;;;;9.31;38.40;102678.63;5006132;28;20499;-66
2022/03/20 07:41:02;;;;;;;23.58;15.55;;;;;;;9.38;38.16;102676.59;5033545;28;20052;-66
2022/03/20 07:43:29;;;;;;;19.02;14.25;;;;;;;9.44;38.21;102661.16;5021014;28;20044;-67
2022/03/20 07:45:56;;;;;;;23.92;16.02;;;;;;;9.49;37.95;102680.63;5014944;28;20484;-66
2022/03/20 07:48:23;;;;;;;19.80;14.52;;;;;;;9.52;37.80;102669.78;5018054;28;20087;-65
2022/03/20 07:50:51;;;;;;;20.30;14.80;;;;;;;9.53;37.73;102657.25;5036031;28;20057;-65
2022/03/20 07:53:17;;;;;;;20.10;14.95;;;;;;;9.55;37.59;102660.75;5016971;28;20410;-66
2022/03/20 07:55:45;;;;;;;18.95;14.35;;;;;;;9.55;37.42;102658.94;5034014;28;20491;-66
2022/03/20 07:58:16;;;;;;;25.38;15.75;;;;;;;9.57;37.43;102673.16;5034339;28;20041;-66
2022/03/20 08:00:43;;;;;;;20.50;15.05;;;;;;;9.57;37.41;102654.38;5035501;28;20127;-65
2022/03/20 08:03:09;;;;;;;20.13;14.40;;;;;;;9.57;37.45;102651.72;5034118;28;20041;-65
2022/03/20 08:05:36;;;;;;;22.40;15.27;;;;;;;9.58;37.30;102644.53;5031022;28;20049;-65
2022/03/20 08:08:04;;;;;;;19.98;14.32;;;;;;;9.57;37.11;102635.63;5033297;28;20487;-66
2022/03/20 08:10:32;;;;;;;23.05;14.73;;;;;;;9.56;37.21;102625.81;5018236;28;20045;-65
2022/03/20 08:12:59;;;;;;;22.38;15.95;;;;;;;9.60;37.15;102625.69;5000909;28;20042;-65
2022/03/20 08:15:25;;;;;;;22.98;14.63;;;;;;;9.61;37.27;102624.75;5017260;28;20041;-65
2022/03/20 08:17:53;;;;;;;21.52;14.95;;;;;;;9.62;37.20;102619.34;5035045;28;20116;-66
2022/03/20 08:20:20;;;;;;;25.15;15.60;;;;;;;9.64;37.18;102630.00;5035452;28;20052;-66
2022/03/20 08:22:48;;;;;;;25.38;16.30;;;;;;;9.64;37.13;102620.16;5017094;28;20073;-65
2022/03/20 08:25:14;;;;;;;22.80;14.43;;;;;;;9.65;37.05;102610.28;5034878;28;20041;-65
2022/03/20 08:27:44;;;;;;;19.60;14.65;;;;;;;9.67;36.93;102625.44;5035053;28;20116;-65
2022/03/20 08:30:15;;;;;;;20.45;14.68;;;;;;;9.68;36.87;102629.00;5035219;28;20056;-66
2022/03/20 08:32:49;;;;;;;21.63;15.73;;;;;;;9.68;36.94;102631.66;5035507;28;20120;-66
2022/03/20 08:35:17;;;;;;;22.20;15.15;;;;;;;9.69;36.78;102630.75;5016435;28;20045;-66
2022/03/20 08:37:45;;;;;;;27.60;16.13;;;;;;;9.68;37.03;102624.50;5034756;28;20061;-64
2022/03/20 08:40:17;;;;;;;24.13;14.98;;;;;;;9.73;36.91;102627.00;5034800;28;20073;-64
2022/03/20 08:42:49;;;;;;;21.45;15.18;;;;;;;9.74;37.14;102620.69;5017171;28;20491;-65
2022/03/20 08:45:15;;;;;;;28.58;15.38;;;;;;;9.76;36.89;102610.78;5016207;28;20107;-64
2022/03/20 08:47:44;;;;;;;28.60;16.75;;;;;;;9.77;36.95;102616.09;5016511;28;20610;-65
2022/03/20 08:50:13;;;;;;;23.08;15.88;;;;;;;9.81;36.92;102612.34;5034677;28;20499;-65
2022/03/20 08:52:48;;;;;;;25.55;15.95;;;;;;;9.88;37.06;102615.66;5017402;28;20049;-64
2022/03/20 08:55:16;;;;;;;18.83;14.50;;;;;;;9.94;36.95;102618.09;5033928;28;20111;-65
2022/03/20 08:57:44;;;;;;;21.48;14.65;;;;;;;10.02;36.91;102620.47;5016563;28;20472;-65
2022/03/20 09:00:13;;;;;;;24.38;16.05;;;;;;;10.10;36.94;102627.28;5016855;28;20065;-65
2022/03/20 09:02:43;;;;;;;19.88;14.82;;;;;;;10.17;36.75;102620.72;5016233;28;20443;-65
2022/03/20 09:05:12;;;;;;;22.63;15.95;;;;;;;10.24;36.85;102621.38;4999717;28;20045;-66
2022/03/20 09:07:43;;;;;;;19.58;14.80;;;;;;;10.33;36.78;102628.16;5034651;28;20121;-65
2022/03/20 09:10:12;;;;;;;23.50;16.08;;;;;;;10.41;36.70;102620.69;5009717;28;20133;-64
2022/03/20 09:12:40;;;;;;;24.60;16.02;;;;;;;10.47;36.58;102625.81;5034351;28;20046;-65
2022/03/20 09:15:12;;;;;;;23.65;15.20;;;;;;;10.53;36.57;102614.81;5016592;28;20418;-64
2022/03/20 09:20:34;;;;;;;23.08;15.82;;;;;;;10.63;36.36;102605.41;5014742;28;20052;-64
2022/03/20 09:23:01;;;;;;;26.85;16.35;;;;;;;10.68;36.41;102605.22;5014382;28;20073;-65
2022/03/20 09:25:28;;;;;;;24.40;16.48;;;;;;;10.83;36.55;102588.41;5016495;28;20399;-64
2022/03/20 09:28:05;;;;;;;23.40;16.20;;;;;;;11.05;36.37;102586.50;5015716;28;20115;-64
2022/03/20 09:30:32;;;;;;;25.30;17.02;;;;;;;11.24;36.33;102581.19;5033658;28;20140;-65
2022/03/20 09:33:02;;;;;;;24.38;17.05;;;;;;;11.45;36.10;102582.88;5015675;28;20100;-65
2022/03/20 09:35:29;;;;;;;24.10;16.50;;;;;;;11.65;36.00;102559.53;5034127;28;20049;-66
2022/03/20 09:37:56;;;;;;;26.42;17.17;;;;;;;11.88;35.89;102562.00;5015463;28;20041;-65
2022/03/20 09:40:33;;;;;;;24.52;16.58;;;;;;;12.11;35.86;102568.97;5016330;28;20053;-65
2022/03/20 09:42:59;;;;;;;25.65;17.40;;;;;;;12.34;35.59;102571.34;5033296;28;20045;-65
2022/03/20 09:45:26;;;;;;;22.88;16.50;;;;;;;12.50;35.24;102562.47;5033709;28;20042;-65
2022/03/20 09:47:53;;;;;;;24.00;17.88;;;;;;;12.64;35.15;102560.84;5033553;28;20044;-66
2022/03/20 09:50:20;;;;;;;23.05;17.15;;;;;;;12.75;34.84;102556.72;5016067;28;20511;-64
2022/03/20 09:52:47;;;;;;;25.65;18.02;;;;;;;12.78;34.68;102551.16;5015513;28;20037;-64
2022/03/20 09:55:14;;;;;;;24.27;17.63;;;;;;;12.77;34.49;102550.28;5015143;28;20033;-65
2022/03/20 09:57:40;;;;;;;22.88;16.88;;;;;;;12.75;34.50;102560.28;5015497;28;20044;-65
2022/03/20 10:00:11;;;;;;;23.88;17.13;;;;;;;12.76;34.22;102571.94;5014969;28;20059;-64
2022/03/20 10:02:38;;;;;;;21.65;17.48;;;;;;;12.73;34.28;102565.75;5016010;28;20087;-64
2022/03/20 10:05:07;;;;;;;26.35;18.73;;;;;;;12.75;34.30;102572.88;5015816;28;20122;-67
2022/03/20 10:07:42;;;;;;;26.77;18.52;;;;;;;12.75;34.14;102572.88;5015003;28;20560;-67
2022/03/20 10:10:16;;;;;;;24.27;17.63;;;;;;;12.72;34.10;102577.50;5032865;28;20068;-67
2022/03/20 10:12:47;;;;;;;24.17;16.88;;;;;;;12.72;34.14;102574.78;5015127;28;20833;-67
2022/03/20 10:15:37;;;;;;;28.13;17.52;;;;;;;12.71;34.00;102578.44;5015706;28;20133;-67
2022/03/20 10:18:05;;;;;;;24.23;18.23;;;;;;;12.68;33.89;102586.69;5015262;28;20120;-67
2022/03/20 10:20:52;;;;;;;24.45;17.60;;;;;;;12.63;33.91;102585.16;5015723;28;20069;-67
2022/03/20 10:23:36;;;;;;;26.20;18.77;;;;;;;12.59;33.96;102587.13;5032569;28;20046;-66
2022/03/20 10:26:09;;;;;;;25.85;17.45;;;;;;;12.56;34.14;102589.13;5032825;28;20128;-67
2022/03/20 10:28:42;;;;;;;27.50;17.83;;;;;;;12.53;34.13;102594.66;4995406;28;20042;-67
2022/03/20 10:31:15;;;;;;;28.15;20.45;;;;;;;12.51;34.34;102591.19;4998191;28;20106;-67
2022/03/20 10:33:43;;;;;;;27.98;19.88;;;;;;;12.45;34.36;102591.50;5015419;28;20045;-67
2022/03/20 10:36:11;;;;;;;28.25;20.02;;;;;;;12.40;34.37;102598.00;5015188;28;20083;-67
2022/03/20 10:38:38;;;;;;;30.50;21.58;;;;;;;12.36;34.62;102599.09;5032730;28;20054;-67
2022/03/20 10:41:18;;;;;;;28.83;21.40;;;;;;;12.30;35.03;102599.41;5015003;28;20053;-68
2022/03/20 10:43:45;;;;;;;32.78;20.73;;;;;;;12.23;35.43;102594.41;5014879;28;20384;-67
2022/03/20 10:46:29;;;;;;;33.22;22.80;;;;;;;12.12;35.89;102602.16;5032703;28;20046;-67
2022/03/20 10:49:05;;;;;;;29.67;22.20;;;;;;;11.97;36.62;102604.66;5032431;28;20111;-68
2022/03/20 10:51:41;;;;;;;32.50;23.10;;;;;;;11.87;36.79;102600.63;5014609;28;20132;-67
2022/03/20 10:54:20;;;;;;;30.83;22.05;;;;;;;11.77;37.17;102593.91;5006689;28;20045;-67
2022/03/20 10:56:57;;;;;;;36.47;23.02;;;;;;;11.69;37.54;102602.34;5015160;28;20067;-67
2022/03/20 10:59:26;;;;;;;33.75;22.67;;;;;;;11.62;37.93;102594.66;5015151;28;20071;-67
2022/03/20 11:01:53;;;;;;;33.08;23.17;;;;;;;11.55;37.94;102591.38;5014875;28;20052;-68
2022/03/20 11:04:20;;;;;;;30.83;22.58;;;;;;;11.55;38.35;102575.25;5032322;28;20068;-68
2022/03/20 11:07:06;;;;;;;31.48;23.55;;;;;;;11.53;38.46;102571.75;5015095;28;20407;-67
2022/03/20 11:09:33;;;;;;;31.58;22.30;;;;;;;11.51;38.46;102570.94;5018680;28;20515;-67
2022/03/20 11:12:05;;;;;;;31.05;22.20;;;;;;;11.51;38.70;102592.47;5036008;28;20484;-67
2022/03/20 11:14:33;;;;;;;31.73;22.70;;;;;;;11.52;38.82;102586.16;5036304;28;20513;-68
2022/03/20 11:17:02;;;;;;;33.30;22.73;;;;;;;11.53;38.88;102597.78;5036249;28;20099;-68
2022/03/20 11:19:31;;;;;;;33.83;23.67;;;;;;;11.54;38.79;102584.25;5018202;28;20045;-67
2022/03/20 11:22:04;;;;;;;30.35;23.00;;;;;;;11.54;39.11;102583.38;5036269;28;20103;-67
2022/03/20 11:24:32;;;;;;;30.63;22.08;;;;;;;11.56;38.94;102579.66;5036589;28;20057;-68
2022/03/20 11:27:01;;;;;;;32.17;23.00;;;;;;;11.59;38.99;102574.16;5018365;28;20052;-68
2022/03/20 11:29:31;;;;;;;33.70;22.42;;;;;;;11.65;39.00;102581.91;5018471;28;20132;-68
2022/03/20 11:32:00;;;;;;;31.23;21.48;;;;;;;11.69;39.12;102580.81;5035404;28;20144;-68
2022/03/20 11:34:29;;;;;;;31.40;22.55;;;;;;;11.72;39.15;102577.13;5036240;28;20091;-67
2022/03/20 11:37:08;;;;;;;33.45;22.55;;;;;;;11.79;39.44;102575.91;5036438;28;20041;-68
2022/03/20 11:40:25;;;;;;;30.92;22.38;;;;;;;11.87;39.23;102573.72;5035781;28;20045;-68
2022/03/20 11:43:23;;;;;;;31.00;22.17;;;;;;;11.96;39.21;102575.97;5027202;28;20112;-67
2022/03/20 11:46:32;;;;;;;30.20;21.77;;;;;;;12.04;39.09;102570.22;5035714;28;20116;-68
2022/03/20 11:49:17;;;;;;;31.45;22.17;;;;;;;12.09;39.07;102571.72;5018099;28;20120;-68
2022/03/20 11:52:15;;;;;;;29.73;22.25;;;;;;;12.18;39.09;102569.53;5035134;28;20504;-67
2022/03/20 11:54:42;;;;;;;29.52;21.95;;;;;;;12.26;39.02;102580.78;5035658;28;20053;-68
2022/03/20 11:57:23;;;;;;;28.95;21.13;;;;;;;12.29;39.08;102570.72;5035690;28;20053;-68
2022/03/20 11:59:52;;;;;;;30.92;22.15;;;;;;;12.37;39.10;102576.59;5017637;28;20041;-68